KDZJ

Blairsville Airport

Blairsville, Georgia, USA
METAR KDZJ 231115Z AUTO 00000KT 10SM CLR 01/01 A3026 RMK AO2 T00120010
Observed Flight Rules
Oct-23 @ 11:15 UTC (34 minutes ago) Visual Flight Rules
Visibility Clouds
10 miles
  • Clear skies
Temperatures Readings
Current 1°C / 34°F
Dewpoint 1°C / 34°F
Humidity 100%
Altimeter 30.26" Hg
Pressure 1025 hPa
Elevation 582
METAR KDZJ 231115Z AUTO 00000KT 10SM CLR 01/01 A3026 RMK AO2 T00120010
Observed Flight Rules
Oct-23 @ 11:15 UTC
(34 minutes ago)
VFR
Clouds
  • Clear skies
Temperature Dewpoint
1°C / 34°F 1°C / 34°F
Humidity Altimeter Pressure
100% 30.26" Hg 1025 hPa